createdAt,value
2018-01-25T00:00:12.580Z,8.24
2018-01-25T00:01:11.833Z,8.26
2018-01-25T00:02:16.143Z,8.2
2018-01-25T00:03:12.202Z,8.2
2018-01-25T00:04:13.179Z,8.17
2018-01-25T00:05:14.576Z,8.2
2018-01-25T00:06:12.499Z,8.19
2018-01-25T00:07:11.697Z,8.19
2018-01-25T00:08:13.534Z,8.21
2018-01-25T00:09:13.591Z,8.19
2018-01-25T00:10:11.795Z,8.17
2018-01-25T00:11:11.869Z,8.19
2018-01-25T00:12:11.646Z,8.19
2018-01-25T00:13:12.871Z,8.19
2018-01-25T00:14:12.070Z,8.19
2018-01-25T00:15:12.267Z,8.19
2018-01-25T00:16:14.525Z,8.17
2018-01-25T00:17:15.146Z,8.2
2018-01-25T00:18:11.181Z,8.17
2018-01-25T00:19:15.096Z,8.14
2018-01-25T00:20:12.936Z,8.16
2018-01-25T00:21:12.026Z,8.14
2018-01-25T00:22:14.195Z,8.13
2018-01-25T00:23:12.347Z,8.13
2018-01-25T00:24:14.007Z,8.14
2018-01-25T00:25:13.499Z,8.12
2018-01-25T00:26:12.842Z,8.13
2018-01-25T00:27:12.243Z,8.13
2018-01-25T00:28:12.739Z,8.1
2018-01-25T00:29:12.526Z,8.14
2018-01-25T00:30:11.380Z,8.14
2018-01-25T00:31:12.921Z,8.01
2018-01-25T00:32:11.413Z,8.03
2018-01-25T00:33:11.824Z,8.02
2018-01-25T00:34:13.119Z,8.06
2018-01-25T00:35:13.681Z,8.05
2018-01-25T00:36:13.082Z,8.05
2018-01-25T00:37:13.019Z,8.08
2018-01-25T00:38:13.414Z,8.05
2018-01-25T00:39:11.342Z,8.06
2018-01-25T00:40:13.587Z,8.08
2018-01-25T00:41:14.729Z,7.95
2018-01-25T00:42:11.355Z,7.95
2018-01-25T00:43:12.027Z,7.96
2018-01-25T00:44:14.184Z,7.95
2018-01-25T00:45:11.805Z,7.96
2018-01-25T00:46:11.290Z,7.98
2018-01-25T00:47:11.513Z,7.98
2018-01-25T00:48:11.779Z,7.96
2018-01-25T00:49:12.839Z,7.93
2018-01-25T00:52:13.019Z,7.91
2018-01-25T00:53:12.038Z,7.92
2018-01-25T00:54:11.365Z,7.91
2018-01-25T00:55:11.774Z,7.95
2018-01-25T00:58:28.929Z,8.01
2018-01-25T00:59:12.758Z,8.02
2018-01-25T01:00:12.824Z,8.05
2018-01-25T01:01:12.147Z,8.08
2018-01-25T01:02:13.529Z,8.1
2018-01-25T01:03:11.772Z,8.12
2018-01-25T01:04:12.048Z,8.14
2018-01-25T01:05:14.759Z,8.16
2018-01-25T01:06:11.327Z,8.3
2018-01-25T01:07:13.562Z,8.36
2018-01-25T01:08:12.971Z,8.36
2018-01-25T01:09:13.644Z,8.38
2018-01-25T01:10:12.438Z,8.44
2018-01-25T01:11:11.510Z,8.44
2018-01-25T01:12:12.405Z,8.47
2018-01-25T01:13:12.223Z,8.48
2018-01-25T01:14:12.044Z,8.49
2018-01-25T01:15:11.190Z,8.49
2018-01-25T01:16:11.428Z,8.55
2018-01-25T01:17:11.204Z,8.58
2018-01-25T01:18:11.218Z,8.62
2018-01-25T01:19:11.248Z,8.65
2018-01-25T01:20:11.376Z,8.68
2018-01-25T01:21:11.212Z,8.75
2018-01-25T01:22:11.409Z,8.82
2018-01-25T01:23:11.391Z,9.06
2018-01-25T01:24:11.335Z,9.16
2018-01-25T01:25:11.322Z,9.23
2018-01-25T01:26:11.601Z,9.35
2018-01-25T01:27:11.555Z,9.4
2018-01-25T01:28:11.238Z,9.38
2018-01-25T01:29:11.443Z,9.48
2018-01-25T01:30:11.349Z,9.62
2018-01-25T01:31:11.280Z,9.73
2018-01-25T01:32:11.284Z,9.75
2018-01-25T01:33:11.385Z,9.7
2018-01-25T01:34:11.415Z,9.73
2018-01-25T01:35:11.452Z,9.86
2018-01-25T01:36:11.357Z,9.86
2018-01-25T01:37:11.373Z,9.89
2018-01-25T01:38:11.340Z,9.99
2018-01-25T01:39:11.374Z,10.06
2018-01-25T01:40:11.290Z,10.14
2018-01-25T01:41:11.865Z,10.19
2018-01-25T01:42:11.485Z,10.17
2018-01-25T01:43:11.256Z,10.16
2018-01-25T01:44:11.419Z,10.23
2018-01-25T01:45:11.362Z,10.27
2018-01-25T01:46:11.251Z,10.41
2018-01-25T01:47:11.440Z,10.37
2018-01-25T01:48:11.353Z,10.32
2018-01-25T01:49:11.365Z,10.32
2018-01-25T01:50:11.381Z,10.31
2018-01-25T01:51:11.222Z,10.32
2018-01-25T01:52:11.408Z,10.52
2018-01-25T01:53:11.252Z,10.49
2018-01-25T01:54:11.263Z,10.51
2018-01-25T01:55:11.415Z,10.58
2018-01-25T01:56:11.320Z,10.62
2018-01-25T01:57:11.408Z,10.58
2018-01-25T01:58:11.254Z,10.61
2018-01-25T01:59:11.291Z,10.58
2018-01-25T02:00:10.965Z,10.61
2018-01-25T02:01:10.613Z,10.55
2018-01-25T02:02:10.529Z,10.53
2018-01-25T02:03:10.360Z,10.48
2018-01-25T02:04:10.500Z,10.47
2018-01-25T02:05:10.424Z,10.41
2018-01-25T02:06:10.369Z,10.39
2018-01-25T02:07:10.333Z,10.44
2018-01-25T02:08:10.300Z,10.38
2018-01-25T02:09:10.466Z,10.41
2018-01-25T02:10:10.371Z,10.49
2018-01-25T02:11:10.277Z,10.44
2018-01-25T02:12:10.295Z,10.41
2018-01-25T02:13:10.362Z,10.39
2018-01-25T02:14:10.317Z,10.35
2018-01-25T02:15:10.300Z,10.34
2018-01-25T02:16:10.424Z,10.38
2018-01-25T02:17:10.477Z,10.49
2018-01-25T02:18:10.382Z,10.45
2018-01-25T02:19:10.503Z,10.44
2018-01-25T02:20:10.325Z,10.41
2018-01-25T02:21:10.474Z,10.41
2018-01-25T02:22:10.507Z,10.42
2018-01-25T02:23:10.392Z,10.48
2018-01-25T02:24:11.001Z,10.48
2018-01-25T02:25:10.515Z,10.49
2018-01-25T02:26:10.400Z,10.49
2018-01-25T02:27:10.502Z,10.47
2018-01-25T02:28:10.616Z,10.45
2018-01-25T02:29:10.564Z,10.44
2018-01-25T02:30:10.722Z,10.41
2018-01-25T02:31:10.607Z,10.42
2018-01-25T02:32:10.528Z,10.42
2018-01-25T02:33:10.529Z,10.42
2018-01-25T02:34:10.538Z,10.39
2018-01-25T02:35:10.599Z,10.45
2018-01-25T02:36:10.381Z,10.39
2018-01-25T02:37:10.562Z,10.37
2018-01-25T02:39:23.353Z,10.37
2018-01-25T02:40:10.472Z,10.37
2018-01-25T02:41:10.420Z,10.37
2018-01-25T02:42:10.566Z,10.45
2018-01-25T02:43:10.480Z,10.53
2018-01-25T02:44:10.573Z,10.51
2018-01-25T02:45:10.352Z,10.45
2018-01-25T02:46:10.539Z,10.45
2018-01-25T02:47:10.458Z,10.39
2018-01-25T02:48:10.430Z,10.37
2018-01-25T02:49:10.489Z,10.39
2018-01-25T02:50:10.434Z,10.41
2018-01-25T02:51:10.522Z,10.45
2018-01-25T02:52:10.457Z,10.45
2018-01-25T02:53:10.427Z,10.48
2018-01-25T02:54:10.554Z,10.51
2018-01-25T02:55:10.388Z,10.48
2018-01-25T02:56:11.083Z,10.47
2018-01-25T02:57:10.507Z,10.47
2018-01-25T02:58:10.345Z,10.52
2018-01-25T02:59:10.375Z,10.64
2018-01-25T03:00:10.486Z,10.58
2018-01-25T03:01:10.362Z,10.64
2018-01-25T03:02:10.497Z,10.62
2018-01-25T03:03:10.865Z,10.59
2018-01-25T03:04:10.473Z,10.58
2018-01-25T03:05:10.459Z,10.61
2018-01-25T03:06:10.676Z,10.64
2018-01-25T03:07:10.596Z,10.59
2018-01-25T03:08:10.469Z,10.62
2018-01-25T03:09:10.367Z,10.62
2018-01-25T03:10:10.388Z,10.64
2018-01-25T03:11:10.487Z,10.59
2018-01-25T03:12:10.545Z,10.61
2018-01-25T03:13:10.627Z,10.69
2018-01-25T03:14:10.430Z,10.66
2018-01-25T03:15:10.520Z,10.62
2018-01-25T03:16:10.569Z,10.58
2018-01-25T03:17:10.476Z,10.53
2018-01-25T03:18:10.451Z,10.52
2018-01-25T03:19:10.606Z,10.49
2018-01-25T03:20:10.454Z,10.51
2018-01-25T03:21:10.581Z,10.53
2018-01-25T03:22:10.476Z,10.51
2018-01-25T03:23:10.529Z,10.48
2018-01-25T03:24:10.564Z,10.44
2018-01-25T03:25:10.459Z,10.41
2018-01-25T03:26:10.550Z,10.39
2018-01-25T03:27:10.510Z,10.38
2018-01-25T03:28:10.470Z,10.38
2018-01-25T03:29:10.574Z,10.38
2018-01-25T03:30:10.618Z,10.41
2018-01-25T03:31:10.493Z,10.41
2018-01-25T03:32:10.578Z,10.41
2018-01-25T03:33:10.664Z,10.47
2018-01-25T03:34:10.597Z,10.47
2018-01-25T03:35:10.667Z,10.51
2018-01-25T03:36:10.675Z,10.53
2018-01-25T03:37:11.458Z,10.55
2018-01-25T03:38:10.476Z,10.59
2018-01-25T03:39:10.415Z,10.69
2018-01-25T03:40:10.652Z,10.72
2018-01-25T03:41:10.632Z,10.68
2018-01-25T03:43:13.051Z,10.69
2018-01-25T03:44:10.490Z,10.75
2018-01-25T03:45:10.631Z,10.72
2018-01-25T03:46:10.524Z,10.76
2018-01-25T03:47:10.685Z,10.75
2018-01-25T03:48:10.438Z,10.75
2018-01-25T03:50:10.541Z,10.72
2018-01-25T03:53:26.476Z,10.68
2018-01-25T03:54:10.594Z,10.73
2018-01-25T03:55:10.716Z,10.84
2018-01-25T03:56:10.516Z,10.84
2018-01-25T03:57:10.572Z,10.8
2018-01-25T03:58:10.570Z,10.76
2018-01-25T03:59:10.683Z,10.79
2018-01-25T04:00:10.758Z,10.82
2018-01-25T04:01:11.243Z,10.78
2018-01-25T04:02:10.493Z,10.78
2018-01-25T04:03:10.713Z,10.84
2018-01-25T04:04:10.711Z,10.87
2018-01-25T04:05:10.611Z,11.03
2018-01-25T04:06:10.604Z,11
2018-01-25T04:07:10.682Z,10.92
2018-01-25T04:08:10.556Z,10.9
2018-01-25T04:09:10.554Z,10.86
2018-01-25T04:10:10.545Z,10.9
2018-01-25T04:11:10.592Z,10.86
2018-01-25T04:12:10.699Z,10.82
2018-01-25T04:13:10.491Z,10.87
2018-01-25T04:14:10.524Z,10.89
2018-01-25T04:15:10.658Z,10.84
2018-01-25T04:16:10.743Z,10.84
2018-01-25T04:17:10.589Z,10.83
2018-01-25T04:18:10.655Z,10.83
2018-01-25T04:19:10.534Z,10.82
2018-01-25T04:20:10.579Z,10.82
2018-01-25T04:21:10.688Z,10.82
2018-01-25T04:22:10.810Z,10.9
2018-01-25T04:23:10.524Z,10.89
2018-01-25T04:24:10.531Z,10.93
2018-01-25T04:25:10.626Z,10.96
2018-01-25T04:26:11.420Z,10.99
2018-01-25T04:27:10.584Z,11
2018-01-25T04:28:10.676Z,11
2018-01-25T04:29:10.596Z,11
2018-01-25T04:30:11.650Z,10.99
2018-01-25T04:31:11.823Z,11.01
2018-01-25T04:32:11.888Z,11
2018-01-25T04:33:10.672Z,11.01
2018-01-25T04:34:10.618Z,11.12
2018-01-25T04:35:10.624Z,11.07
2018-01-25T04:36:10.537Z,11.18
2018-01-25T04:37:10.752Z,11.15
2018-01-25T04:38:10.718Z,11.18
2018-01-25T04:39:10.683Z,11.15
2018-01-25T04:40:10.566Z,11.2
2018-01-25T04:41:10.649Z,11.34
2018-01-25T04:42:10.717Z,11.38
2018-01-25T04:43:10.632Z,11.32
2018-01-25T04:44:10.545Z,11.28
2018-01-25T04:45:10.707Z,11.3
2018-01-25T04:46:10.712Z,11.28
2018-01-25T04:47:10.690Z,11.22
2018-01-25T04:48:10.702Z,11.2
2018-01-25T04:49:10.653Z,11.2
2018-01-25T04:50:10.618Z,11.2
2018-01-25T04:51:10.602Z,11.17
2018-01-25T04:52:10.633Z,11.22
2018-01-25T04:53:10.729Z,11.21
2018-01-25T04:54:10.749Z,11.22
2018-01-25T04:55:10.624Z,11.24
2018-01-25T04:56:10.788Z,11.24
2018-01-25T04:57:10.724Z,11.24
2018-01-25T04:58:10.635Z,11.24
2018-01-25T04:59:10.709Z,11.2
2018-01-25T05:00:10.870Z,11.18
2018-01-25T05:01:10.779Z,11.27
2018-01-25T05:02:10.560Z,11.3
2018-01-25T05:03:11.334Z,11.3
2018-01-25T05:04:10.586Z,11.28
2018-01-25T05:05:10.809Z,11.31
2018-01-25T05:06:10.793Z,11.28
2018-01-25T05:07:10.684Z,11.25
2018-01-25T05:08:10.793Z,11.24
2018-01-25T05:09:10.792Z,11.31
2018-01-25T05:10:10.615Z,11.27
2018-01-25T05:11:10.817Z,11.28
2018-01-25T05:12:10.768Z,11.24
2018-01-25T05:13:11.356Z,11.22
2018-01-25T05:14:10.700Z,11.39
2018-01-25T05:15:10.719Z,11.35
2018-01-25T05:16:10.612Z,11.32
2018-01-25T05:17:10.756Z,11.32
2018-01-25T05:18:10.612Z,11.3
2018-01-25T05:19:10.648Z,11.3
2018-01-25T05:20:10.672Z,11.27
2018-01-25T05:21:10.902Z,11.21
2018-01-25T05:22:10.705Z,11.25
2018-01-25T05:23:10.750Z,11.24
2018-01-25T05:24:10.522Z,11.21
2018-01-25T05:25:10.786Z,11.24
2018-01-25T05:26:10.523Z,11.27
2018-01-25T05:27:10.711Z,11.24
2018-01-25T05:28:10.683Z,11.21
2018-01-25T05:29:10.669Z,11.21
2018-01-25T05:30:10.732Z,11.18
2018-01-25T05:31:10.694Z,11.15
2018-01-25T05:32:10.869Z,11.2
2018-01-25T05:33:10.888Z,11.22
2018-01-25T05:34:10.918Z,11.25
2018-01-25T05:35:10.805Z,11.24
2018-01-25T05:36:10.756Z,11.3
2018-01-25T05:37:10.892Z,11.3
2018-01-25T05:38:10.786Z,11.24
2018-01-25T05:39:10.847Z,11.2
2018-01-25T05:40:10.725Z,11.2
2018-01-25T05:41:10.777Z,11.18
2018-01-25T05:42:10.814Z,11.18
2018-01-25T05:43:10.617Z,11.17
2018-01-25T05:44:10.674Z,11.15
2018-01-25T05:45:10.595Z,11.18
2018-01-25T05:46:10.700Z,11.21
2018-01-25T05:47:10.672Z,11.2
2018-01-25T05:48:10.622Z,11.14
2018-01-25T05:49:10.691Z,11.12
2018-01-25T05:50:10.666Z,11.08
2018-01-25T05:51:10.655Z,11.08
2018-01-25T05:52:10.625Z,11.08
2018-01-25T05:53:10.606Z,11.1
2018-01-25T05:54:10.781Z,11.1
2018-01-25T05:55:10.576Z,11.17
2018-01-25T05:56:10.583Z,11.22
2018-01-25T05:57:10.723Z,11.2
2018-01-25T05:58:10.618Z,11.2
2018-01-25T05:59:10.871Z,11.2
2018-01-25T06:00:10.862Z,11.17
2018-01-25T06:01:10.690Z,11.25
2018-01-25T06:02:11.117Z,11.24
2018-01-25T06:03:10.765Z,11.21
2018-01-25T06:04:10.709Z,11.25
2018-01-25T06:05:10.953Z,11.28
2018-01-25T06:06:11.061Z,11.25
2018-01-25T06:07:10.705Z,11.2
2018-01-25T06:08:10.928Z,11.28
2018-01-25T06:09:10.795Z,11.25
2018-01-25T06:10:10.727Z,11.28
2018-01-25T06:11:10.803Z,11.32
2018-01-25T06:12:10.795Z,11.32
2018-01-25T06:13:10.703Z,11.3
2018-01-25T06:14:10.928Z,11.31
2018-01-25T06:15:10.836Z,11.3
2018-01-25T06:16:10.826Z,11.3
2018-01-25T06:17:10.869Z,11.3
2018-01-25T06:18:11.053Z,11.3
2018-01-25T06:19:10.829Z,11.28
2018-01-25T06:20:10.857Z,11.27
2018-01-25T06:21:10.879Z,11.25
2018-01-25T06:22:10.917Z,11.37
2018-01-25T06:23:11.351Z,11.32
2018-01-25T06:24:10.698Z,11.28
2018-01-25T06:25:10.854Z,11.28
2018-01-25T06:26:10.782Z,11.27
2018-01-25T06:27:10.819Z,11.22
2018-01-25T06:28:10.760Z,11.22
2018-01-25T06:29:10.731Z,11.25
2018-01-25T06:30:10.943Z,11.25
2018-01-25T06:31:10.741Z,11.34
2018-01-25T06:32:10.733Z,11.31
2018-01-25T06:33:11.159Z,11.27
2018-01-25T06:34:10.920Z,11.27
2018-01-25T06:35:10.748Z,11.21
2018-01-25T06:36:10.881Z,11.24
2018-01-25T06:37:10.602Z,11.24
2018-01-25T06:38:10.888Z,11.22
2018-01-25T06:39:10.809Z,11.37
2018-01-25T06:40:10.719Z,11.32
2018-01-25T06:41:10.697Z,11.38
2018-01-25T06:42:10.717Z,11.34
2018-01-25T06:43:10.862Z,11.34
2018-01-25T06:44:10.760Z,11.35
2018-01-25T06:45:10.741Z,11.28
2018-01-25T06:46:10.761Z,11.27
2018-01-25T06:47:10.604Z,11.25
2018-01-25T06:48:10.655Z,11.24
2018-01-25T06:49:10.948Z,11.24
2018-01-25T06:50:10.686Z,11.21
2018-01-25T06:51:10.680Z,11.21
2018-01-25T06:52:10.790Z,11.34
2018-01-25T06:53:10.812Z,11.32
2018-01-25T06:54:10.677Z,11.34
2018-01-25T06:55:10.695Z,11.34
2018-01-25T06:56:10.598Z,11.31
2018-01-25T06:57:10.769Z,11.32
2018-01-25T06:58:10.701Z,11.3
2018-01-25T06:59:10.748Z,11.28
2018-01-25T07:00:10.783Z,11.28
2018-01-25T07:01:10.940Z,11.27
2018-01-25T07:02:10.727Z,11.24
2018-01-25T07:03:10.839Z,11.3
2018-01-25T07:04:10.821Z,11.3
2018-01-25T07:05:10.851Z,11.27
2018-01-25T07:06:10.856Z,11.27
2018-01-25T07:07:10.746Z,11.27
2018-01-25T07:08:10.784Z,11.21
2018-01-25T07:09:10.712Z,11.21
2018-01-25T07:10:10.798Z,11.22
2018-01-25T07:11:10.959Z,11.22
2018-01-25T07:12:10.884Z,11.22
2018-01-25T07:13:10.738Z,11.25
2018-01-25T07:14:10.775Z,11.25
2018-01-25T07:15:10.803Z,11.22
2018-01-25T07:16:10.826Z,11.24
2018-01-25T07:17:10.743Z,11.25
2018-01-25T07:18:10.867Z,11.3
2018-01-25T07:19:10.808Z,11.25
2018-01-25T07:20:10.802Z,11.24
2018-01-25T07:21:10.668Z,11.25
2018-01-25T07:22:10.953Z,11.27
2018-01-25T07:23:10.875Z,11.28
2018-01-25T07:24:10.686Z,11.3
2018-01-25T07:25:10.824Z,11.28
2018-01-25T07:26:11.021Z,11.3
2018-01-25T07:27:10.824Z,11.27
2018-01-25T07:28:10.931Z,11.25
2018-01-25T07:29:10.904Z,11.25
2018-01-25T07:30:10.886Z,11.24
2018-01-25T07:31:10.736Z,11.25
2018-01-25T07:32:10.834Z,11.22
2018-01-25T07:33:10.927Z,11.22
2018-01-25T07:34:10.826Z,11.21
2018-01-25T07:35:11.368Z,11.18
2018-01-25T07:36:10.876Z,11.18
2018-01-25T07:37:10.853Z,11.14
2018-01-25T07:38:10.886Z,11.11
2018-01-25T07:39:10.882Z,11.07
2018-01-25T07:40:11.089Z,11.06
2018-01-25T07:41:10.973Z,11.01
2018-01-25T07:42:10.991Z,10.97
2018-01-25T07:43:10.985Z,10.97
2018-01-25T07:44:10.895Z,10.94
2018-01-25T07:45:11.162Z,10.94
2018-01-25T07:46:10.957Z,10.9
2018-01-25T07:47:10.861Z,10.93
2018-01-25T07:48:10.867Z,10.89
2018-01-25T07:49:10.873Z,10.9
2018-01-25T07:50:10.850Z,10.86
2018-01-25T07:51:11.002Z,10.86
2018-01-25T07:52:10.816Z,10.84
2018-01-25T07:53:10.811Z,10.83
2018-01-25T07:54:10.972Z,10.8
2018-01-25T07:55:10.965Z,10.79
2018-01-25T07:56:11.006Z,10.78
2018-01-25T07:57:10.829Z,10.83
2018-01-25T07:58:10.806Z,10.79
2018-01-25T07:59:10.867Z,10.78
2018-01-25T08:00:10.880Z,10.78
2018-01-25T08:01:11.071Z,10.8
2018-01-25T08:02:10.745Z,10.79
2018-01-25T08:03:11.263Z,10.76
2018-01-25T08:04:11.389Z,10.79
2018-01-25T08:05:11.044Z,10.78
2018-01-25T08:06:11.935Z,10.78
2018-01-25T08:07:11.103Z,10.76
2018-01-25T08:08:11.193Z,10.73
2018-01-25T08:09:11.191Z,10.72
2018-01-25T08:10:11.117Z,10.72
2018-01-25T08:11:11.143Z,10.71
2018-01-25T08:12:11.137Z,10.68
2018-01-25T08:13:11.403Z,10.69
2018-01-25T08:14:11.059Z,10.66
2018-01-25T08:15:11.064Z,10.66
2018-01-25T08:16:11.056Z,10.66
2018-01-25T08:17:11.095Z,10.61
2018-01-25T08:18:11.203Z,10.66
2018-01-25T08:19:11.097Z,10.69
2018-01-25T08:20:11.129Z,10.68
2018-01-25T08:21:11.261Z,10.65
2018-01-25T08:22:11.268Z,10.62
2018-01-25T08:23:11.295Z,10.65
2018-01-25T08:24:11.190Z,10.64
2018-01-25T08:25:11.240Z,10.64
2018-01-25T08:26:11.164Z,10.62
2018-01-25T08:27:11.107Z,10.62
2018-01-25T08:28:11.269Z,10.59
2018-01-25T08:29:11.235Z,10.62
2018-01-25T08:30:11.289Z,10.65
2018-01-25T08:31:11.057Z,10.64
2018-01-25T08:32:11.130Z,10.65
2018-01-25T08:33:11.148Z,10.66
2018-01-25T08:34:11.128Z,10.66
2018-01-25T08:35:11.089Z,10.66
2018-01-25T08:36:11.342Z,10.69
2018-01-25T08:37:11.156Z,10.71
2018-01-25T08:38:11.195Z,10.69
2018-01-25T08:39:11.793Z,10.71
2018-01-25T08:40:11.210Z,10.68
2018-01-25T08:41:11.214Z,10.71
2018-01-25T08:42:11.253Z,10.69
2018-01-25T08:43:11.357Z,10.69
2018-01-25T08:44:11.342Z,10.72
2018-01-25T08:45:13.729Z,10.73
2018-01-25T08:46:11.288Z,10.76
2018-01-25T08:47:11.247Z,10.76
2018-01-25T08:48:11.281Z,10.73
2018-01-25T08:49:11.244Z,10.79
2018-01-25T08:50:11.197Z,10.79
2018-01-25T08:51:11.143Z,10.79
2018-01-25T08:52:11.228Z,10.82
2018-01-25T08:53:11.249Z,10.82
2018-01-25T08:54:11.283Z,10.8
2018-01-25T08:55:11.124Z,10.8
2018-01-25T08:56:11.180Z,10.82
2018-01-25T08:57:11.043Z,10.78
2018-01-25T08:58:11.729Z,10.8
2018-01-25T08:59:11.228Z,10.83
2018-01-25T09:00:11.221Z,10.82
2018-01-25T09:01:11.171Z,10.87
2018-01-25T09:02:11.063Z,10.84
2018-01-25T09:03:11.302Z,10.84
2018-01-25T09:04:11.337Z,10.86
2018-01-25T09:05:11.407Z,10.9
2018-01-25T09:06:11.269Z,10.89
2018-01-25T09:07:11.137Z,10.86
2018-01-25T09:08:11.313Z,10.87
2018-01-25T09:09:11.303Z,10.87
2018-01-25T09:10:11.540Z,10.9
2018-01-25T09:11:11.134Z,10.92
2018-01-25T09:12:11.142Z,10.92
2018-01-25T09:13:11.426Z,10.9
2018-01-25T09:14:11.291Z,10.9
2018-01-25T09:15:11.337Z,10.87
2018-01-25T09:16:11.217Z,10.89
2018-01-25T09:17:11.316Z,10.87
2018-01-25T09:18:11.205Z,10.89
2018-01-25T09:19:11.267Z,10.87
2018-01-25T09:20:11.222Z,10.89
2018-01-25T09:21:11.415Z,10.86
2018-01-25T09:22:11.488Z,10.86
2018-01-25T09:23:11.305Z,10.87
2018-01-25T09:24:11.283Z,10.9
2018-01-25T09:25:11.328Z,10.9
2018-01-25T09:26:11.292Z,10.92
2018-01-25T09:27:11.432Z,10.92
2018-01-25T09:28:11.358Z,10.92
2018-01-25T09:29:11.275Z,10.92
2018-01-25T09:30:11.246Z,10.92
2018-01-25T09:31:11.225Z,10.92
2018-01-25T09:32:11.402Z,10.94
2018-01-25T09:33:11.314Z,10.96
2018-01-25T09:34:10.474Z,10.96
2018-01-25T09:35:10.251Z,10.97
2018-01-25T09:36:10.315Z,10.97
2018-01-25T09:37:10.155Z,10.99
2018-01-25T09:38:10.438Z,11
2018-01-25T09:39:10.385Z,11.03
2018-01-25T09:40:10.382Z,11.03
2018-01-25T09:41:10.357Z,11.04
2018-01-25T09:42:10.295Z,11.01
2018-01-25T09:43:10.176Z,11
2018-01-25T09:44:10.377Z,11.01
2018-01-25T09:45:10.320Z,11
2018-01-25T09:46:10.339Z,10.99
2018-01-25T09:47:10.437Z,10.97
2018-01-25T09:48:10.356Z,11.01
2018-01-25T09:49:10.298Z,11.01
2018-01-25T09:50:10.316Z,11
2018-01-25T09:51:10.361Z,11.01
2018-01-25T09:52:10.433Z,11.07
2018-01-25T09:53:10.352Z,11.07
2018-01-25T09:54:10.294Z,11.07
2018-01-25T09:55:10.428Z,11.1
2018-01-25T09:56:10.543Z,11.11
2018-01-25T09:57:10.425Z,11.11
2018-01-25T09:58:10.324Z,11.11
2018-01-25T09:59:10.424Z,11.07
2018-01-25T10:00:10.477Z,11.14
2018-01-25T10:01:10.358Z,11.1
2018-01-25T10:02:10.215Z,11.14
2018-01-25T10:03:10.508Z,11.12
2018-01-25T10:04:10.378Z,11.14
2018-01-25T10:05:10.464Z,11.15
2018-01-25T10:06:10.317Z,11.12
2018-01-25T10:07:10.509Z,11.1
2018-01-25T10:08:10.389Z,11.11
2018-01-25T10:09:10.349Z,11.1
2018-01-25T10:10:10.351Z,11.14
2018-01-25T10:11:10.357Z,11.14
2018-01-25T10:12:10.531Z,11.12
2018-01-25T10:13:10.435Z,11.21
2018-01-25T10:14:10.355Z,11.24
2018-01-25T10:15:10.324Z,11.22
2018-01-25T10:16:10.303Z,11.22
2018-01-25T10:17:10.407Z,11.24
2018-01-25T10:18:10.404Z,11.25
2018-01-25T10:19:10.397Z,11.27
2018-01-25T10:20:10.439Z,11.27
2018-01-25T10:21:10.395Z,11.28
2018-01-25T10:22:10.454Z,11.3
2018-01-25T10:23:10.410Z,11.31
2018-01-25T10:24:10.633Z,11.32
2018-01-25T10:25:10.573Z,11.31
2018-01-25T10:26:10.441Z,11.38
2018-01-25T10:27:10.410Z,11.39
2018-01-25T10:28:10.452Z,11.39
2018-01-25T10:29:10.446Z,11.39
2018-01-25T10:30:10.418Z,11.41
2018-01-25T10:31:10.483Z,11.41
2018-01-25T10:32:10.388Z,11.41
2018-01-25T10:33:10.396Z,11.39
2018-01-25T10:34:10.505Z,11.38
2018-01-25T10:35:10.596Z,11.38
2018-01-25T10:36:10.422Z,11.38
2018-01-25T10:37:10.510Z,11.37
2018-01-25T10:38:10.425Z,11.38
2018-01-25T10:39:10.348Z,11.39
2018-01-25T10:40:10.447Z,11.38
2018-01-25T10:41:10.542Z,11.41
2018-01-25T10:42:10.601Z,11.38
2018-01-25T10:43:10.674Z,11.39
2018-01-25T10:44:10.535Z,11.39
2018-01-25T10:45:11.087Z,11.41
2018-01-25T10:46:10.688Z,11.37
2018-01-25T10:47:10.656Z,11.41
2018-01-25T10:48:10.483Z,11.41
2018-01-25T10:49:11.009Z,11.42
2018-01-25T10:50:10.636Z,11.44
2018-01-25T10:51:10.587Z,11.42
2018-01-25T10:52:10.450Z,11.45
2018-01-25T10:53:10.425Z,11.45
2018-01-25T10:54:11.690Z,11.45
2018-01-25T10:55:11.950Z,11.48
2018-01-25T10:56:11.114Z,11.45
2018-01-25T10:57:11.185Z,11.44
2018-01-25T10:58:11.833Z,11.45
2018-01-25T10:59:12.004Z,11.47
2018-01-25T11:00:14.143Z,11.44
2018-01-25T11:01:12.714Z,11.44
2018-01-25T11:02:10.495Z,11.44
2018-01-25T11:03:11.918Z,11.49
2018-01-25T11:04:11.576Z,11.49
2018-01-25T11:05:11.395Z,11.48
2018-01-25T11:06:11.855Z,11.48
2018-01-25T11:07:11.306Z,11.48
2018-01-25T11:08:12.579Z,11.49
2018-01-25T11:09:11.631Z,11.49
2018-01-25T11:10:12.126Z,11.47
2018-01-25T11:11:11.265Z,11.48
2018-01-25T11:12:10.744Z,11.48
2018-01-25T11:13:11.310Z,11.47
2018-01-25T11:14:11.564Z,11.49
2018-01-25T11:15:11.159Z,11.49
2018-01-25T11:16:11.567Z,11.47
2018-01-25T11:17:12.901Z,11.49
2018-01-25T11:18:13.417Z,11.48
2018-01-25T11:19:12.217Z,11.47
2018-01-25T11:20:14.260Z,11.48
2018-01-25T11:21:15.759Z,11.49
2018-01-25T11:22:11.680Z,11.49
2018-01-25T11:23:11.822Z,11.51
2018-01-25T11:24:10.733Z,11.52
2018-01-25T11:25:10.814Z,11.52
2018-01-25T11:26:11.764Z,11.51
2018-01-25T11:27:15.342Z,11.52
2018-01-25T11:28:12.866Z,11.52
2018-01-25T11:29:11.459Z,11.55
2018-01-25T11:30:11.463Z,11.52
2018-01-25T11:31:12.161Z,11.55
2018-01-25T11:32:14.274Z,11.52
2018-01-25T11:33:12.188Z,11.56
2018-01-25T11:34:10.955Z,11.54
2018-01-25T11:35:11.540Z,11.56
2018-01-25T11:36:11.617Z,11.58
2018-01-25T11:37:10.725Z,11.58
2018-01-25T11:38:11.463Z,11.59
2018-01-25T11:39:11.448Z,11.61
2018-01-25T11:40:10.805Z,11.62
2018-01-25T11:41:10.992Z,11.65
2018-01-25T11:42:10.831Z,11.66
2018-01-25T11:43:10.829Z,11.68
2018-01-25T11:44:10.692Z,11.72
2018-01-25T11:45:10.847Z,11.72
2018-01-25T11:46:10.811Z,11.73
2018-01-25T11:47:10.647Z,11.72
2018-01-25T11:48:10.825Z,11.77
2018-01-25T11:49:10.783Z,11.82
2018-01-25T11:50:10.646Z,11.8
2018-01-25T11:51:10.827Z,11.84
2018-01-25T11:52:10.740Z,11.87
2018-01-25T11:53:10.767Z,11.86
2018-01-25T11:54:10.713Z,11.86
2018-01-25T11:55:10.789Z,11.84
2018-01-25T11:56:10.897Z,11.86
2018-01-25T11:57:10.793Z,11.87
2018-01-25T11:58:10.916Z,11.89
2018-01-25T11:59:10.740Z,11.9
2018-01-25T12:00:10.733Z,11.9
2018-01-25T12:01:10.673Z,11.9
2018-01-25T12:02:10.882Z,11.92
2018-01-25T12:03:10.899Z,11.93
2018-01-25T12:04:11.071Z,11.93
2018-01-25T12:05:10.972Z,11.96
2018-01-25T12:06:11.042Z,11.92
2018-01-25T12:07:11.179Z,11.94
2018-01-25T12:08:11.164Z,11.94
2018-01-25T12:09:11.151Z,11.96
2018-01-25T12:10:10.964Z,11.96
2018-01-25T12:11:11.037Z,11.97
2018-01-25T12:12:10.972Z,11.97
2018-01-25T12:13:11.005Z,11.96
2018-01-25T12:14:11.192Z,11.97
2018-01-25T12:15:11.042Z,11.97
2018-01-25T12:16:11.258Z,12.01
2018-01-25T12:17:11.147Z,12.01
2018-01-25T12:18:11.084Z,12.01
2018-01-25T12:19:10.972Z,12.03
2018-01-25T12:20:11.226Z,11.98
2018-01-25T12:21:11.183Z,12
2018-01-25T12:22:11.008Z,12
2018-01-25T12:23:11.015Z,12.03
2018-01-25T12:24:11.115Z,12.04
2018-01-25T12:25:11.110Z,12.05
2018-01-25T12:26:11.188Z,12.04
2018-01-25T12:27:11.094Z,12.07
2018-01-25T12:28:11.078Z,12.07
2018-01-25T12:29:10.972Z,12.05
2018-01-25T12:30:10.960Z,12.04
2018-01-25T12:31:11.159Z,12.04
2018-01-25T12:32:11.095Z,12.04
2018-01-25T12:33:11.150Z,12.04
2018-01-25T12:34:12.104Z,12.01
2018-01-25T12:35:10.459Z,12.04
2018-01-25T12:36:10.455Z,12.03
2018-01-25T12:37:10.284Z,12.04
2018-01-25T12:38:10.264Z,12.03
2018-01-25T12:39:10.296Z,12.04
2018-01-25T12:40:10.367Z,12.04
2018-01-25T12:41:10.398Z,12
2018-01-25T12:42:10.184Z,12
2018-01-25T12:43:10.322Z,12.03
2018-01-25T12:44:10.419Z,12.03
2018-01-25T12:45:10.422Z,12.01
2018-01-25T12:46:10.327Z,12.03
2018-01-25T12:47:10.285Z,12
2018-01-25T12:48:10.410Z,12.01
2018-01-25T12:49:10.405Z,12.03
2018-01-25T12:50:10.210Z,12.01
2018-01-25T12:51:10.353Z,12.01
2018-01-25T12:52:10.313Z,12.01
2018-01-25T12:53:10.275Z,12
2018-01-25T12:54:10.476Z,12
2018-01-25T12:55:10.408Z,12
2018-01-25T12:56:10.522Z,11.98
2018-01-25T12:57:10.348Z,12
2018-01-25T12:58:10.313Z,12
2018-01-25T12:59:10.343Z,12.03
2018-01-25T13:00:10.469Z,12.07
2018-01-25T13:01:10.262Z,12.18
2018-01-25T13:02:10.413Z,12.24
2018-01-25T13:03:10.206Z,12.24
2018-01-25T13:04:10.291Z,12.28
2018-01-25T13:05:10.528Z,12.27
2018-01-25T13:06:10.309Z,12.29
2018-01-25T13:07:10.284Z,12.25
2018-01-25T13:08:10.367Z,12.25